Time;durP1;ratioP1;P1;durP2;ratioP2;P2;SDS_P1;SDS_P2;PMS_P1;PMS_P2;Temp;Humidity;BMP_temperature;BMP_pressure;BME280_temperature;BME280_humidity;BME280_pressure;Samples;Min_cycle;Max_cycle;Signal;HPM_P1;HPM_P2
2022/10/14 00:01:19;;;;;;;6.72;6.07;;;;;;;;;;5065566;28;20109;-59
2022/10/14 00:04:03;;;;;;;6.95;6.05;;;;;;;;;;5130057;28;20072;-59
2022/10/14 00:06:45;;;;;;;8.30;6.22;;;;;;;;;;5130362;28;20024;-59
2022/10/14 00:12:54;;;;;;;11.70;6.50;;;;;;;;;;5118549;28;20024;-59
2022/10/14 00:15:49;;;;;;;9.10;6.10;;;;;;;;;;5125862;28;20189;-59
2022/10/14 00:18:31;;;;;;;7.25;6.38;;;;;;;;;;5129464;28;20053;-59
2022/10/14 00:21:32;;;;;;;;;;;;;;;;;;;;;
2022/10/14 00:26:52;;;;;;;8.02;5.65;;;;;;;;;;5129844;28;19925;-59
2022/10/14 00:33:32;;;;;;;10.43;5.93;;;;;;;;;;5129928;28;20067;-59
2022/10/14 00:35:58;;;;;;;7.35;6.10;;;;;;;;;;5113479;28;20044;-59
2022/10/14 00:38:26;;;;;;;;;;;;;;;;;;5129981;28;20028;-59
2022/10/14 00:41:05;;;;;;;7.15;6.22;;;;;;;;;;5129634;28;19903;-60
2022/10/14 00:43:59;;;;;;;6.72;6.13;;;;;;;;;;5129663;28;20063;-59
2022/10/14 00:46:48;;;;;;;10.35;6.50;;;;;;;;;;5149359;27;20046;-59
2022/10/14 00:53:00;;;;;;;6.43;5.55;;;;;;;;;;5061020;28;20103;-59
2022/10/14 00:55:45;;;;;;;9.55;7.32;;;;;;;;;;5150204;27;20046;-59
2022/10/14 00:58:32;;;;;;;11.98;5.97;;;;;;;;;;5150411;28;20080;-59
2022/10/14 01:01:14;;;;;;;7.13;6.43;;;;;;;;;;5133143;28;20062;-59
2022/10/14 01:10:08;;;;;;;8.55;5.55;;;;;;;;;;5071270;28;20038;-59
2022/10/14 01:16:04;;;;;;;5.88;5.28;;;;;;;;;;5125705;28;20749;-59
2022/10/14 01:18:45;;;;;;;7.32;6.03;;;;;;;;;;5149921;28;20035;-59
2022/10/14 01:24:25;;;;;;;7.47;5.55;;;;;;;;;;5149409;28;20054;-59
2022/10/14 01:27:16;;;;;;;8.80;6.20;;;;;;;;;;5086655;28;20025;-60
2022/10/14 01:29:54;;;;;;;;;;;;;;;;;;5087654;28;20036;-59
2022/10/14 01:32:49;;;;;;;6.50;5.80;;;;;;;;;;5090312;28;19954;-59
2022/10/14 01:35:41;;;;;;;6.80;5.75;;;;;;;;;;5089873;28;20040;-59
2022/10/14 01:38:35;;;;;;;7.68;6.28;;;;;;;;;;5090233;28;20096;-59
2022/10/14 01:41:29;;;;;;;9.85;6.47;;;;;;;;;;5090289;28;20059;-59
2022/10/14 01:44:19;;;;;;;10.70;6.43;;;;;;;;;;5090454;28;20106;-59
2022/10/14 01:50:07;;;;;;;11.90;6.97;;;;;;;;;;5090322;28;19950;-60
2022/10/14 01:52:56;;;;;;;7.82;4.90;;;;;;;;;;5137327;27;20117;-59
2022/10/14 01:55:40;;;;;;;7.03;6.25;;;;;;;;;;5134631;27;20032;-59
2022/10/14 01:58:21;;;;;;;6.82;5.78;;;;;;;;;;5135160;27;20027;-59
2022/10/14 02:00:53;;;;;;;7.53;6.07;;;;;;;;;;5153124;27;20517;-59
2022/10/14 02:03:56;;;;;;;9.73;6.63;;;;;;;;;;5152885;27;20046;-59
2022/10/14 02:06:34;;;;;;;8.93;5.97;;;;;;;;;;5153192;27;20361;-59
2022/10/14 02:09:22;;;;;;;11.38;6.50;;;;;;;;;;5110423;28;20040;-59
2022/10/14 02:15:09;;;;;;;8.43;6.85;;;;;;;;;;5009963;28;20053;-59
2022/10/14 02:18:10;;;;;;;8.10;6.50;;;;;;;;;;5105340;28;20032;-59
2022/10/14 02:21:17;;;;;;;;;;;;;;;;;;;;;
2022/10/14 02:23:59;;;;;;;9.45;7.20;;;;;;;;;;5110648;28;20108;-59
2022/10/14 02:26:49;;;;;;;10.02;6.20;;;;;;;;;;5109899;28;20064;-59
2022/10/14 02:29:36;;;;;;;7.55;6.75;;;;;;;;;;5109704;28;20117;-59
2022/10/14 02:35:59;;;;;;;7.60;6.13;;;;;;;;;;5049201;28;20092;-59
2022/10/14 02:39:01;;;;;;;10.00;7.22;;;;;;;;;;5048997;28;20053;-59
2022/10/14 02:41:30;;;;;;;7.30;5.82;;;;;;;;;;5071537;28;20032;-59
2022/10/14 02:44:37;;;;;;;7.30;5.85;;;;;;;;;;5089758;28;20100;-59
2022/10/14 02:47:25;;;;;;;8.18;5.75;;;;;;;;;;5061831;28;20084;-59
2022/10/14 02:49:56;;;;;;;11.63;6.57;;;;;;;;;;5069578;28;20060;-59
2022/10/14 02:52:43;;;;;;;7.88;6.18;;;;;;;;;;5069524;28;20032;-59
2022/10/14 02:58:54;;;;;;;;;;;;;;;;;;;;;
2022/10/14 03:01:23;;;;;;;6.88;5.45;;;;;;;;;;4961288;29;20070;-59
2022/10/14 03:06:44;;;;;;;;;;;;;;;;;;;;;
2022/10/14 03:12:25;;;;;;;9.23;6.18;;;;;;;;;;5009302;28;20061;-59
2022/10/14 03:15:23;;;;;;;11.05;6.13;;;;;;;;;;5002243;28;20121;-59
2022/10/14 03:18:25;;;;;;;7.65;6.22;;;;;;;;;;5008880;28;20041;-59
2022/10/14 03:21:12;;;;;;;7.13;6.43;;;;;;;;;;4970193;29;20070;-59
2022/10/14 03:23:45;;;;;;;8.45;6.68;;;;;;;;;;4969784;29;20054;-59
2022/10/14 03:26:11;;;;;;;8.52;7.47;;;;;;;;;;5047692;28;20041;-59
2022/10/14 03:29:11;;;;;;;16.17;8.05;;;;;;;;;;5048378;28;20040;-59
2022/10/14 03:32:02;;;;;;;;;;;;;;;;;;;;;
2022/10/14 03:34:44;;;;;;;8.38;6.68;;;;;;;;;;5030197;28;20037;-59
2022/10/14 03:37:21;;;;;;;8.68;6.40;;;;;;;;;;5033528;28;20491;-59
2022/10/14 03:45:59;;;;;;;;;;;;;;;;;;;;;
2022/10/14 03:48:38;;;;;;;14.05;6.65;;;;;;;;;;5125206;27;20039;-59
2022/10/14 03:51:30;;;;;;;8.65;7.00;;;;;;;;;;5137207;27;20407;-59
2022/10/14 03:54:19;;;;;;;9.32;7.32;;;;;;;;;;5115179;27;20036;-59
2022/10/14 03:56:50;;;;;;;9.85;6.35;;;;;;;;;;5118549;27;20035;-59
2022/10/14 04:00:04;;;;;;;9.18;7.35;;;;;;;;;;5117427;27;20507;-59
2022/10/14 04:06:34;;;;;;;;;;;;;;;;;;;;;
2022/10/14 04:09:22;;;;;;;10.65;8.32;;;;;;;;;;4974536;28;20026;-59
2022/10/14 04:15:03;;;;;;;10.32;8.45;;;;;;;;;;5072642;28;20051;-59
2022/10/14 04:17:29;;;;;;;10.45;8.35;;;;;;;;;;5012739;28;20076;-59
2022/10/14 04:26:48;;;;;;;10.43;8.77;;;;;;;;;;5072731;28;20079;-59
2022/10/14 04:29:36;;;;;;;11.30;8.38;;;;;;;;;;5070574;28;20540;-60
2022/10/14 04:32:22;;;;;;;10.65;7.85;;;;;;;;;;5056680;28;20458;-59
2022/10/14 04:37:56;;;;;;;9.20;8.07;;;;;;;;;;5062612;28;20079;-59
2022/10/14 04:40:26;;;;;;;12.23;9.48;;;;;;;;;;5073292;28;20028;-59
2022/10/14 04:43:11;;;;;;;14.10;9.98;;;;;;;;;;5055654;28;20118;-59
2022/10/14 04:49:22;;;;;;;12.05;8.68;;;;;;;;;;5100955;28;20048;-60
2022/10/14 04:54:57;;;;;;;12.27;10.60;;;;;;;;;;5083249;28;20031;-59
2022/10/14 04:57:35;;;;;;;12.00;10.50;;;;;;;;;;5105009;28;20469;-59
2022/10/14 05:03:17;;;;;;;14.80;10.82;;;;;;;;;;5037555;28;20056;-59
2022/10/14 05:06:12;;;;;;;;;;;;;;;;;;;;;
2022/10/14 05:12:03;;;;;;;13.02;10.13;;;;;;;;;;4976991;28;20524;-59
2022/10/14 05:14:53;;;;;;;11.05;9.48;;;;;;;;;;5080820;28;20039;-59
2022/10/14 05:17:38;;;;;;;;;;;;;;;;;;;;;
2022/10/14 05:20:25;;;;;;;;;;;;;;;;;;;;;
2022/10/14 05:23:16;;;;;;;14.25;10.10;;;;;;;;;;5115710;28;20477;-59
2022/10/14 05:26:11;;;;;;;18.38;10.82;;;;;;;;;;5100157;28;20548;-60
2022/10/14 05:29:06;;;;;;;;;;;;;;;;;;;;;
2022/10/14 05:32:17;;;;;;;14.98;11.02;;;;;;;;;;5118846;28;20381;-59
2022/10/14 05:38:33;;;;;;;13.52;11.85;;;;;;;;;;5031333;28;20036;-59
2022/10/14 05:44:32;;;;;;;11.45;8.77;;;;;;;;;;5079153;28;20031;-59
2022/10/14 05:47:16;;;;;;;11.00;9.93;;;;;;;;;;5135999;27;20581;-59
2022/10/14 05:50:10;;;;;;;18.23;10.95;;;;;;;;;;5138520;27;20020;-59
2022/10/14 05:55:40;;;;;;;11.93;10.07;;;;;;;;;;5138976;27;20042;-59
2022/10/14 05:58:16;;;;;;;13.10;10.40;;;;;;;;;;5120127;27;20031;-59
2022/10/14 06:01:10;;;;;;;13.73;10.73;;;;;;;;;;5138589;27;20027;-59
2022/10/14 06:07:22;;;;;;;12.65;11.32;;;;;;;;;;5137557;27;20433;-59
2022/10/14 06:10:26;;;;;;;21.50;17.00;;;;;;;;;;5120208;27;20027;-59
2022/10/14 06:19:26;;;;;;;;;;;;;;;;;;;;;
2022/10/14 06:22:13;;;;;;;22.42;15.52;;;;;;;;;;5138692;27;20508;-59
2022/10/14 06:24:53;;;;;;;18.20;13.73;;;;;;;;;;5120353;27;20460;-59
2022/10/14 06:27:37;;;;;;;14.40;10.85;;;;;;;;;;5110627;27;20042;-59
2022/10/14 06:33:30;;;;;;;13.95;11.95;;;;;;;;;;5065789;28;20119;-59
2022/10/14 06:36:31;;;;;;;17.10;13.20;;;;;;;;;;5138724;27;20402;-59
2022/10/14 06:39:46;;;;;;;15.13;13.48;;;;;;;;;;5137395;27;20042;-59
2022/10/14 06:42:20;;;;;;;11.48;10.27;;;;;;;;;;5017382;28;20029;-59
2022/10/14 06:45:13;;;;;;;14.25;11.52;;;;;;;;;;5035072;28;20160;-59
2022/10/14 06:47:52;;;;;;;15.05;11.18;;;;;;;;;;5026062;28;20404;-59
2022/10/14 06:50:42;;;;;;;18.50;11.52;;;;;;;;;;5054208;28;20437;-59
2022/10/14 06:56:27;;;;;;;12.60;11.32;;;;;;;;;;5117459;28;20027;-59
2022/10/14 06:59:28;;;;;;;12.85;11.50;;;;;;;;;;5116641;28;20480;-59
2022/10/14 07:05:06;;;;;;;11.13;9.20;;;;;;;;;;5116871;28;20160;-59
2022/10/14 07:08:08;;;;;;;14.60;9.70;;;;;;;;;;5098800;28;20531;-59
2022/10/14 07:10:48;;;;;;;17.20;10.88;;;;;;;;;;5037175;28;20055;-59
2022/10/14 07:13:36;;;;;;;14.60;11.18;;;;;;;;;;5069659;28;20477;-59
2022/10/14 07:16:20;;;;;;;11.55;10.07;;;;;;;;;;5086199;28;20028;-59
2022/10/14 07:19:39;;;;;;;13.02;9.52;;;;;;;;;;5114410;28;20043;-59
2022/10/14 07:22:35;;;;;;;16.08;11.25;;;;;;;;;;5069715;28;20050;-59
2022/10/14 07:40:57;;;;;;;;;;;;;;;;;;;;;
2022/10/14 07:43:49;;;;;;;14.27;12.40;;;;;;;;;;5053682;28;20036;-59
2022/10/14 07:49:50;;;;;;;;;;;;;;;;;;;;;
2022/10/14 07:52:47;;;;;;;;;;;;;;;;;;;;;
2022/10/14 07:55:41;;;;;;;10.82;9.27;;;;;;;;;;5135577;27;20031;-59
2022/10/14 08:01:37;;;;;;;12.15;10.27;;;;;;;;;;5012608;28;20120;-59
2022/10/14 08:04:24;;;;;;;12.55;10.30;;;;;;;;;;5092779;28;20040;-59
2022/10/14 08:13:39;;;;;;;10.45;8.70;;;;;;;;;;5094399;27;20086;-59
2022/10/14 08:16:33;;;;;;;12.57;8.35;;;;;;;;;;5135897;27;20034;-59
2022/10/14 08:25:28;;;;;;;15.27;11.73;;;;;;;;;;5128446;27;20067;-59
2022/10/14 08:31:19;;;;;;;9.93;8.93;;;;;;;;;;5089377;27;20091;-59
2022/10/14 08:33:59;;;;;;;13.05;9.55;;;;;;;;;;5112490;27;20066;-59
2022/10/14 08:39:32;;;;;;;10.70;9.00;;;;;;;;;;5135786;27;20537;-59
2022/10/14 08:42:04;;;;;;;10.70;9.60;;;;;;;;;;5117086;27;20050;-59
2022/10/14 08:47:56;;;;;;;10.48;6.90;;;;;;;;;;5135210;27;20094;-59
2022/10/14 08:50:50;;;;;;;11.50;8.02;;;;;;;;;;5117950;27;20357;-59
2022/10/14 08:53:48;;;;;;;;;;;;;;;;;;;;;
2022/10/14 09:08:52;;;;;;;8.32;6.47;;;;;;;;;;5135347;28;20435;-60
2022/10/14 09:11:40;;;;;;;9.10;6.93;;;;;;;;;;5117594;28;20405;-60
2022/10/14 09:14:32;;;;;;;7.32;6.38;;;;;;;;;;5114000;28;20422;-60
2022/10/14 09:17:21;;;;;;;8.23;6.10;;;;;;;;;;5090953;28;20115;-60
2022/10/14 09:20:32;;;;;;;;;;;;;;;;;;;;;
2022/10/14 09:23:15;;;;;;;9.65;4.80;;;;;;;;;;5081782;28;20041;-60
2022/10/14 09:29:03;;;;;;;8.18;5.72;;;;;;;;;;5135163;28;20594;-60
2022/10/14 09:44:18;;;;;;;6.85;5.22;;;;;;;;;;5125319;28;20054;-60
2022/10/14 09:47:17;;;;;;;7.38;5.38;;;;;;;;;;5070217;28;20642;-60
2022/10/14 09:49:55;;;;;;;5.85;4.80;;;;;;;;;;5046305;28;20043;-60
2022/10/14 09:52:31;;;;;;;8.80;5.38;;;;;;;;;;5042623;28;20037;-60
2022/10/14 09:58:02;;;;;;;13.38;7.30;;;;;;;;;;5067040;28;20029;-59
2022/10/14 10:01:01;;;;;;;9.57;5.38;;;;;;;;;;5053017;28;20048;-60
2022/10/14 10:03:32;;;;;;;7.40;5.13;;;;;;;;;;5070604;28;20111;-60
2022/10/14 10:07:02;;;;;;;8.50;6.10;;;;;;;;;;5046853;28;20028;-60
2022/10/14 10:12:12;;;;;;;8.23;6.18;;;;;;;;;;5119472;27;20030;-60
2022/10/14 10:15:19;;;;;;;;;;;;;;;;;;;;;
2022/10/14 10:18:21;;;;;;;8.05;5.45;;;;;;;;;;5138401;27;20031;-60
2022/10/14 10:21:25;;;;;;;8.60;5.13;;;;;;;;;;5118893;27;20016;-60
2022/10/14 10:24:17;;;;;;;5.45;4.28;;;;;;;;;;5137897;27;20020;-58
2022/10/14 10:27:24;;;;;;;7.35;5.53;;;;;;;;;;5136804;27;20042;-57
2022/10/14 10:30:14;;;;;;;6.57;4.55;;;;;;;;;;5118546;27;20042;-58
2022/10/14 10:33:06;;;;;;;7.20;5.45;;;;;;;;;;5138328;27;20055;-58
2022/10/14 10:36:16;;;;;;;6.43;4.95;;;;;;;;;;5119047;27;20084;-58
2022/10/14 10:39:14;;;;;;;9.32;4.47;;;;;;;;;;5124852;27;20389;-58
2022/10/14 10:42:15;;;;;;;5.57;4.88;;;;;;;;;;5096545;27;20039;-59
2022/10/14 10:45:00;;;;;;;7.18;4.88;;;;;;;;;;5017892;28;20542;-58
2022/10/14 10:47:38;;;;;;;8.38;5.13;;;;;;;;;;4989258;28;20444;-59
2022/10/14 10:50:30;;;;;;;;;;;;;;;;;;;;;
2022/10/14 10:53:05;;;;;;;6.70;4.20;;;;;;;;;;4995079;28;20034;-59
2022/10/14 10:56:06;;;;;;;5.60;3.53;;;;;;;;;;5070466;28;20040;-59
2022/10/14 10:58:53;;;;;;;10.88;4.05;;;;;;;;;;5056167;28;20540;-59
2022/10/14 11:04:44;;;;;;;4.70;3.13;;;;;;;;;;5052731;28;20060;-59
2022/10/14 11:13:31;;;;;;;11.43;3.95;;;;;;;;;;5034043;28;20063;-58
2022/10/14 11:16:41;;;;;;;6.65;4.63;;;;;;;;;;5017242;28;20037;-59
2022/10/14 11:22:49;;;;;;;6.05;3.17;;;;;;;;;;4994268;28;20034;-59
2022/10/14 11:31:57;;;;;;;3.60;2.58;;;;;;;;;;4983773;28;20058;-59
2022/10/14 11:37:47;;;;;;;5.78;2.63;;;;;;;;;;5060944;28;20484;-59
2022/10/14 11:44:05;;;;;;;6.18;4.38;;;;;;;;;;5054259;28;20056;-59
2022/10/14 11:50:17;;;;;;;5.70;3.72;;;;;;;;;;5033662;28;20048;-59
2022/10/14 11:52:57;;;;;;;6.63;3.20;;;;;;;;;;5033396;28;20052;-59
2022/10/14 11:55:54;;;;;;;9.27;4.32;;;;;;;;;;5034025;28;20069;-59
2022/10/14 12:01:38;;;;;;;5.30;3.53;;;;;;;;;;5008119;28;20033;-59
2022/10/14 12:08:06;;;;;;;9.45;3.28;;;;;;;;;;5012585;28;20542;-59
2022/10/14 12:10:45;;;;;;;3.00;2.13;;;;;;;;;;5013440;28;20042;-59
2022/10/14 12:13:56;;;;;;;;;;;;;;;;;;;;;
2022/10/14 12:16:53;;;;;;;3.00;1.98;;;;;;;;;;5032714;28;20379;-59
2022/10/14 12:19:50;;;;;;;3.17;2.50;;;;;;;;;;5032363;28;20451;-58
2022/10/14 12:22:45;;;;;;;3.47;2.45;;;;;;;;;;5015595;28;20077;-58
2022/10/14 12:28:17;;;;;;;2.45;1.75;;;;;;;;;;5032521;28;20041;-59
2022/10/14 12:31:28;;;;;;;;;;;;;;;;;;;;;
2022/10/14 12:34:25;;;;;;;3.88;2.50;;;;;;;;;;5054916;28;20378;-59
2022/10/14 12:37:17;;;;;;;5.30;2.17;;;;;;;;;;5116795;27;20469;-58
2022/10/14 12:40:05;;;;;;;3.85;2.28;;;;;;;;;;5015558;28;20476;-59
2022/10/14 12:43:12;;;;;;;5.63;3.10;;;;;;;;;;5018773;28;20044;-58
2022/10/14 12:46:00;;;;;;;5.05;2.90;;;;;;;;;;5032414;28;20475;-59
2022/10/14 12:55:13;;;;;;;3.53;1.55;;;;;;;;;;5135634;27;20043;-59
2022/10/14 12:58:04;;;;;;;2.92;1.50;;;;;;;;;;5096197;27;20027;-59
2022/10/14 13:00:43;;;;;;;2.92;1.80;;;;;;;;;;5135396;27;20027;-59
2022/10/14 13:03:48;;;;;;;3.58;1.52;;;;;;;;;;5116840;28;20117;-58
2022/10/14 13:06:36;;;;;;;2.03;1.50;;;;;;;;;;5134858;28;20530;-59
2022/10/14 13:09:41;;;;;;;3.55;1.42;;;;;;;;;;5135550;28;20022;-58
2022/10/14 13:12:26;;;;;;;2.00;1.58;;;;;;;;;;5135725;28;20035;-58
2022/10/14 13:18:45;;;;;;;2.85;1.52;;;;;;;;;;5135151;28;20085;-59
2022/10/14 13:21:50;;;;;;;2.95;1.50;;;;;;;;;;5113961;28;20160;-58
2022/10/14 13:25:08;;;;;;;3.28;1.55;;;;;;;;;;5117195;28;20059;-59
2022/10/14 13:31:09;;;;;;;3.03;1.05;;;;;;;;;;5139623;27;20059;-59
2022/10/14 13:37:06;;;;;;;2.20;1.20;;;;;;;;;;5128087;27;20030;-58
2022/10/14 13:39:42;;;;;;;2.65;1.38;;;;;;;;;;5140203;27;20031;-58
2022/10/14 13:42:49;;;;;;;2.45;1.48;;;;;;;;;;5139423;27;20034;-59
2022/10/14 13:45:59;;;;;;;3.60;1.40;;;;;;;;;;5110467;27;20035;-59
2022/10/14 13:49:04;;;;;;;;;;;;;;;;;;;;;
2022/10/14 13:54:54;;;;;;;4.40;1.30;;;;;;;;;;4976319;28;20039;-59
2022/10/14 13:57:29;;;;;;;2.83;1.15;;;;;;;;;;5016547;28;20122;-58
2022/10/14 14:00:24;;;;;;;2.08;1.05;;;;;;;;;;5098396;28;20105;-59
2022/10/14 14:03:19;;;;;;;2.53;0.93;;;;;;;;;;4977035;28;20026;-59
2022/10/14 14:06:15;;;;;;;;;;;;;;;;;;;;;
2022/10/14 14:09:02;;;;;;;3.75;1.30;;;;;;;;;;5119075;28;20102;-59
2022/10/14 14:11:44;;;;;;;7.22;1.48;;;;;;;;;;5118396;28;20019;-58
2022/10/14 14:14:33;;;;;;;2.33;1.27;;;;;;;;;;5098943;28;20053;-59
2022/10/14 14:17:22;;;;;;;5.22;1.33;;;;;;;;;;5047723;28;20487;-59
2022/10/14 14:23:11;;;;;;;4.70;1.77;;;;;;;;;;5021575;28;20403;-59
2022/10/14 14:25:48;;;;;;;4.25;1.77;;;;;;;;;;5098854;28;20046;-59
2022/10/14 14:28:32;;;;;;;1.80;1.08;;;;;;;;;;5099818;28;20461;-59
2022/10/14 14:31:30;;;;;;;2.17;1.40;;;;;;;;;;5117949;28;20458;-59
2022/10/14 14:34:03;;;;;;;4.57;1.55;;;;;;;;;;5081712;28;20058;-59
2022/10/14 14:36:44;;;;;;;3.40;1.80;;;;;;;;;;5114912;28;20032;-59
2022/10/14 14:42:24;;;;;;;;;;;;;;;;;;5100852;28;20028;-59
2022/10/14 14:48:08;;;;;;;;;;;;;;;;;;5117496;28;20059;-59
2022/10/14 14:57:18;;;;;;;3.42;1.45;;;;;;;;;;5137351;27;20096;-59
2022/10/14 15:00:16;;;;;;;1.65;1.10;;;;;;;;;;5137373;27;20459;-59
2022/10/14 15:02:55;;;;;;;1.70;1.02;;;;;;;;;;5073649;28;20032;-59
2022/10/14 15:05:50;;;;;;;2.30;1.20;;;;;;;;;;5074124;28;20509;-59
2022/10/14 15:08:39;;;;;;;2.33;1.30;;;;;;;;;;5057496;28;20597;-59
2022/10/14 15:11:18;;;;;;;3.30;1.27;;;;;;;;;;5063904;28;20474;-59
2022/10/14 15:17:09;;;;;;;1.40;0.80;;;;;;;;;;5074264;28;20497;-60
2022/10/14 15:26:25;;;;;;;;;;;;;;;;;;;;;
2022/10/14 15:29:13;;;;;;;1.85;0.95;;;;;;;;;;5131834;27;20046;-58
2022/10/14 15:32:20;;;;;;;1.30;0.73;;;;;;;;;;5136887;27;20023;-59
2022/10/14 15:40:55;;;;;;;1.77;1.13;;;;;;;;;;5093748;28;20035;-59
2022/10/14 15:43:42;;;;;;;2.33;1.30;;;;;;;;;;5041327;28;20028;-59
2022/10/14 15:54:59;;;;;;;2.42;1.65;;;;;;;;;;5073332;28;20047;-59
2022/10/14 15:58:01;;;;;;;1.73;1.10;;;;;;;;;;5073334;28;20044;-60
2022/10/14 16:00:27;;;;;;;2.50;1.10;;;;;;;;;;5012091;28;20026;-60
2022/10/14 16:03:11;;;;;;;2.53;1.45;;;;;;;;;;4996883;28;20045;-60
2022/10/14 16:08:51;;;;;;;2.17;1.33;;;;;;;;;;4983735;28;20106;-59
2022/10/14 16:12:14;;;;;;;;;;;;;;;;;;;;;
2022/10/14 16:17:41;;;;;;;2.65;1.40;;;;;;;;;;5121516;27;20118;-59
2022/10/14 16:20:26;;;;;;;3.97;2.50;;;;;;;;;;5135974;27;20019;-59
2022/10/14 16:23:29;;;;;;;3.33;1.92;;;;;;;;;;5137032;27;20026;-59
2022/10/14 16:26:05;;;;;;;2.78;1.33;;;;;;;;;;5016665;28;20037;-59
2022/10/14 16:31:48;;;;;;;2.03;1.48;;;;;;;;;;5029040;28;20060;-59
2022/10/14 16:34:42;;;;;;;2.28;1.38;;;;;;;;;;5036865;28;20113;-59
2022/10/14 16:40:24;;;;;;;2.30;1.30;;;;;;;;;;5026453;28;20033;-59
2022/10/14 16:49:38;;;;;;;2.65;1.42;;;;;;;;;;5134416;27;20114;-60
2022/10/14 16:52:28;;;;;;;2.83;1.40;;;;;;;;;;5046882;28;20495;-60
2022/10/14 16:55:33;;;;;;;2.30;1.23;;;;;;;;;;5132898;27;20038;-60
2022/10/14 16:58:24;;;;;;;2.30;1.13;;;;;;;;;;5132666;27;20076;-60
2022/10/14 17:07:11;;;;;;;3.13;1.60;;;;;;;;;;5134897;28;20031;-60
2022/10/14 17:10:03;;;;;;;5.78;3.30;;;;;;;;;;5099689;28;20400;-60
2022/10/14 17:12:52;;;;;;;2.83;1.80;;;;;;;;;;5103846;28;20031;-58
2022/10/14 17:18:39;;;;;;;6.43;2.70;;;;;;;;;;5123950;28;20046;-58
2022/10/14 17:21:32;;;;;;;3.65;2.45;;;;;;;;;;5135883;28;20547;-58
2022/10/14 17:27:25;;;;;;;4.85;3.38;;;;;;;;;;5135057;28;20078;-58
2022/10/14 17:42:19;;;;;;;3.83;2.45;;;;;;;;;;5088313;28;20042;-58
2022/10/14 17:45:03;;;;;;;4.05;2.15;;;;;;;;;;5096159;28;20373;-58
2022/10/14 17:50:44;;;;;;;3.95;2.95;;;;;;;;;;5134567;27;20437;-58
2022/10/14 17:53:30;;;;;;;5.18;2.78;;;;;;;;;;5133808;28;20500;-58
2022/10/14 17:56:20;;;;;;;3.85;2.03;;;;;;;;;;5135696;28;20388;-58
2022/10/14 18:02:42;;;;;;;4.07;2.55;;;;;;;;;;5112680;28;20528;-59
2022/10/14 18:08:34;;;;;;;6.05;3.45;;;;;;;;;;5134884;28;20106;-59
2022/10/14 18:11:17;;;;;;;3.88;2.75;;;;;;;;;;5135626;27;20015;-59
2022/10/14 18:14:09;;;;;;;6.10;3.38;;;;;;;;;;5138456;27;20084;-59
2022/10/14 18:16:46;;;;;;;4.35;3.33;;;;;;;;;;5134244;27;20466;-59
2022/10/14 18:19:45;;;;;;;3.25;2.13;;;;;;;;;;5119877;27;20491;-59
2022/10/14 18:22:23;;;;;;;3.40;1.95;;;;;;;;;;5139562;27;20026;-59
2022/10/14 18:25:10;;;;;;;2.72;2.17;;;;;;;;;;5138535;27;20068;-59
2022/10/14 18:28:07;;;;;;;3.25;2.40;;;;;;;;;;5137085;27;20038;-59
2022/10/14 18:30:37;;;;;;;4.03;2.30;;;;;;;;;;5114437;27;20129;-59
2022/10/14 18:33:17;;;;;;;3.38;1.88;;;;;;;;;;5120955;27;20457;-59
2022/10/14 18:36:11;;;;;;;7.82;2.10;;;;;;;;;;5138633;27;20056;-59
2022/10/14 18:48:31;;;;;;;3.80;1.88;;;;;;;;;;4956244;29;20089;-59
2022/10/14 18:51:11;;;;;;;2.35;1.33;;;;;;;;;;4956696;28;20510;-59
2022/10/14 18:53:58;;;;;;;2.25;1.20;;;;;;;;;;4963030;29;20563;-59
2022/10/14 18:57:08;;;;;;;3.42;1.23;;;;;;;;;;4956180;29;20139;-59
2022/10/14 18:59:42;;;;;;;1.42;0.80;;;;;;;;;;5026126;28;20028;-59
2022/10/14 19:02:38;;;;;;;2.95;0.88;;;;;;;;;;5033689;28;20496;-59
2022/10/14 19:05:12;;;;;;;2.58;1.45;;;;;;;;;;5053203;28;20568;-59
2022/10/14 19:11:06;;;;;;;3.00;1.52;;;;;;;;;;5069614;27;20058;-59
2022/10/14 19:13:40;;;;;;;2.63;1.27;;;;;;;;;;5119119;27;20084;-59
2022/10/14 19:16:25;;;;;;;4.07;2.63;;;;;;;;;;5116199;27;20050;-59
2022/10/14 19:19:10;;;;;;;2.53;1.10;;;;;;;;;;5137549;27;20468;-59
2022/10/14 19:24:49;;;;;;;2.13;1.50;;;;;;;;;;5124997;27;20084;-59
2022/10/14 19:30:20;;;;;;;2.13;1.27;;;;;;;;;;5125570;27;20064;-59
2022/10/14 19:32:50;;;;;;;4.65;1.40;;;;;;;;;;5103332;27;20449;-59
2022/10/14 19:35:32;;;;;;;1.75;1.10;;;;;;;;;;5116165;27;20043;-59
2022/10/14 19:38:11;;;;;;;1.67;1.02;;;;;;;;;;5136762;27;20031;-59
2022/10/14 19:44:02;;;;;;;1.63;0.90;;;;;;;;;;5118396;27;20114;-59
2022/10/14 19:46:48;;;;;;;3.33;1.75;;;;;;;;;;5136788;27;20038;-59
2022/10/14 19:49:21;;;;;;;1.42;0.85;;;;;;;;;;5136965;27;20022;-59
2022/10/14 19:51:52;;;;;;;2.13;1.10;;;;;;;;;;5136119;27;20131;-59
2022/10/14 19:57:03;;;;;;;2.85;1.58;;;;;;;;;;5136453;27;20043;-59
2022/10/14 19:59:38;;;;;;;2.10;1.25;;;;;;;;;;5117849;27;20400;-59
2022/10/14 20:05:47;;;;;;;3.83;1.75;;;;;;;;;;5136696;27;20038;-59
2022/10/14 20:08:26;;;;;;;2.55;1.30;;;;;;;;;;5118350;27;20026;-59
2022/10/14 20:11:27;;;;;;;3.22;1.58;;;;;;;;;;5116514;27;20050;-59
2022/10/14 20:14:17;;;;;;;4.72;1.27;;;;;;;;;;5137010;27;20114;-59
2022/10/14 20:17:23;;;;;;;2.83;1.00;;;;;;;;;;5136363;27;20027;-60
2022/10/14 20:20:20;;;;;;;1.58;0.82;;;;;;;;;;5136795;27;20027;-59
2022/10/14 20:23:02;;;;;;;2.17;1.15;;;;;;;;;;5136424;27;20387;-59
2022/10/14 20:26:36;;;;;;;;;;;;;;;;;;;;;
2022/10/14 20:29:00;;;;;;;2.50;1.42;;;;;;;;;;5091445;27;20042;-59
2022/10/14 20:31:41;;;;;;;2.97;1.38;;;;;;;;;;5118026;27;20488;-59
2022/10/14 20:41:26;;;;;;;3.08;2.05;;;;;;;;;;4973663;28;20031;-59
2022/10/14 20:44:24;;;;;;;4.35;1.70;;;;;;;;;;4956348;28;20031;-59
2022/10/14 20:47:13;;;;;;;2.10;1.45;;;;;;;;;;4974779;28;20088;-59
2022/10/14 20:52:40;;;;;;;3.75;1.08;;;;;;;;;;4993530;28;20071;-59
2022/10/14 20:58:40;;;;;;;5.18;1.50;;;;;;;;;;5013037;28;20049;-59
2022/10/14 21:01:09;;;;;;;3.88;1.33;;;;;;;;;;5017991;28;20038;-59
2022/10/14 21:07:12;;;;;;;2.50;1.25;;;;;;;;;;5015547;28;20029;-59
2022/10/14 21:09:52;;;;;;;3.65;1.30;;;;;;;;;;4967694;29;20031;-59
2022/10/14 21:12:37;;;;;;;2.88;1.25;;;;;;;;;;5050148;28;20093;-59
2022/10/14 21:15:20;;;;;;;1.42;0.93;;;;;;;;;;5065604;28;20028;-59
2022/10/14 21:21:10;;;;;;;1.40;0.73;;;;;;;;;;5006717;28;20415;-59
2022/10/14 21:23:39;;;;;;;2.80;0.75;;;;;;;;;;5066372;28;20136;-59
2022/10/14 21:26:24;;;;;;;2.47;0.98;;;;;;;;;;5066064;28;20394;-59
2022/10/14 21:29:24;;;;;;;1.58;0.88;;;;;;;;;;5065871;28;20086;-59
2022/10/14 21:31:57;;;;;;;1.75;1.25;;;;;;;;;;5127595;28;20024;-59
2022/10/14 21:40:59;;;;;;;4.97;1.45;;;;;;;;;;5046682;28;20068;-59
2022/10/14 21:43:56;;;;;;;1.75;1.08;;;;;;;;;;5046679;28;20041;-60
2022/10/14 21:46:49;;;;;;;1.10;0.70;;;;;;;;;;5046845;28;20056;-60
2022/10/14 21:49:43;;;;;;;1.95;1.25;;;;;;;;;;5050295;28;20021;-60
2022/10/14 21:52:11;;;;;;;1.42;0.82;;;;;;;;;;5060472;28;20055;-60
2022/10/14 21:57:51;;;;;;;3.15;1.33;;;;;;;;;;5106390;28;20062;-60
2022/10/14 22:03:28;;;;;;;2.67;1.33;;;;;;;;;;5121234;28;20024;-60
2022/10/14 22:05:58;;;;;;;;;;;;;;;;;;5132124;28;20081;-60
2022/10/14 22:08:46;;;;;;;1.80;1.10;;;;;;;;;;5113618;28;19911;-61
2022/10/14 22:11:38;;;;;;;2.97;1.58;;;;;;;;;;5132250;28;20027;-60
2022/10/14 22:17:55;;;;;;;3.15;1.40;;;;;;;;;;5132592;28;20043;-61
2022/10/14 22:24:12;;;;;;;;;;;;;;;;;;;;;
2022/10/14 22:26:57;;;;;;;1.45;0.70;;;;;;;;;;4990258;28;20074;-60
2022/10/14 22:32:29;;;;;;;3.80;0.52;;;;;;;;;;4979777;28;20030;-59
2022/10/14 22:38:41;;;;;;;1.35;0.80;;;;;;;;;;5029888;28;20026;-58
2022/10/14 22:41:08;;;;;;;1.45;0.80;;;;;;;;;;5091949;28;20071;-58
2022/10/14 22:47:27;;;;;;;;;;;;;;;;;;;;;
2022/10/14 22:53:13;;;;;;;1.58;0.95;;;;;;;;;;5028380;28;20053;-58
2022/10/14 22:58:59;;;;;;;1.85;0.73;;;;;;;;;;5109388;28;20039;-58
2022/10/14 23:26:26;;;;;;;1.75;0.75;;;;;;;;;;5109425;27;20041;-58
2022/10/14 23:29:25;;;;;;;3.70;0.75;;;;;;;;;;5152320;27;20116;-58
2022/10/14 23:32:06;;;;;;;0.82;0.45;;;;;;;;;;5152448;27;20031;-58
2022/10/14 23:34:35;;;;;;;1.10;0.40;;;;;;;;;;5151112;27;20035;-58
2022/10/14 23:40:27;;;;;;;1.50;0.43;;;;;;;;;;5151495;27;20035;-58
2022/10/14 23:46:05;;;;;;;1.08;0.40;;;;;;;;;;5143626;27;20067;-58
2022/10/14 23:52:26;;;;;;;;;;;;;;;;;;;;;
2022/10/14 23:55:21;;;;;;;;;;;;;;;;;;;;;
2022/10/14 23:58:15;;;;;;;0.38;0.20;;;;;;;;;;5126851;28;20034;-58
